Time;durP1;ratioP1;P1;durP2;ratioP2;P2;SDS_P1;SDS_P2;PMS_P1;PMS_P2;Temp;Humidity;BMP_temperature;BMP_pressure;BME280_temperature;BME280_humidity;BME280_pressure;Samples;Min_cycle;Max_cycle;Signal;HPM_P1;HPM_P2
2023/06/18 00:02:05;;;;;;;8.93;4.43;;;24.60;61.60;;;;;;5034239;28;20065;-78
2023/06/18 00:04:31;;;;;;;7.53;3.85;;;24.70;61.40;;;;;;5033724;28;20452;-78
2023/06/18 00:06:57;;;;;;;7.88;4.50;;;24.80;61.00;;;;;;5034034;28;20033;-78
2023/06/18 00:09:24;;;;;;;7.22;4.10;;;24.80;60.90;;;;;;5033405;28;20063;-78
2023/06/18 00:11:50;;;;;;;5.00;3.58;;;24.60;61.10;;;;;;5033781;28;20030;-79
2023/06/18 00:14:17;;;;;;;6.35;3.97;;;24.60;60.90;;;;;;5033884;28;20025;-79
2023/06/18 00:16:43;;;;;;;8.93;4.65;;;24.70;60.90;;;;;;5034138;28;20030;-78
2023/06/18 00:19:09;;;;;;;5.35;3.92;;;24.70;61.00;;;;;;5034002;28;20068;-78
2023/06/18 00:21:35;;;;;;;6.78;3.92;;;24.60;60.80;;;;;;5033273;28;20033;-78
2023/06/18 00:24:00;;;;;;;7.05;3.80;;;24.70;60.50;;;;;;5033697;28;20029;-78
2023/06/18 00:26:26;;;;;;;7.70;4.47;;;24.80;60.30;;;;;;5032492;28;20037;-78
2023/06/18 00:28:52;;;;;;;6.30;4.25;;;24.80;60.30;;;;;;5032419;28;20084;-78
2023/06/18 00:31:19;;;;;;;7.25;4.38;;;24.70;60.30;;;;;;5032502;28;20151;-78
2023/06/18 00:33:45;;;;;;;7.57;3.83;;;24.60;60.20;;;;;;5033601;28;20068;-78
2023/06/18 00:36:12;;;;;;;4.55;3.70;;;24.70;60.20;;;;;;5032386;28;20451;-78
2023/06/18 00:38:45;;;;;;;8.30;3.97;;;24.60;60.10;;;;;;5033543;28;20048;-78
2023/06/18 00:41:11;;;;;;;6.47;4.32;;;24.60;59.90;;;;;;5034104;28;20163;-78
2023/06/18 00:43:37;;;;;;;4.50;3.65;;;24.60;59.90;;;;;;5033547;28;20034;-78
2023/06/18 00:46:04;;;;;;;10.57;4.32;;;24.60;59.90;;;;;;5033008;28;20056;-78
2023/06/18 00:48:32;;;;;;;7.18;4.03;;;24.60;59.70;;;;;;5032593;28;20068;-78
2023/06/18 00:51:01;;;;;;;5.68;4.00;;;24.60;59.70;;;;;;5033434;28;20041;-78
2023/06/18 00:53:28;;;;;;;5.30;3.42;;;24.50;59.80;;;;;;5032210;28;20037;-78
2023/06/18 00:55:53;;;;;;;4.45;3.22;;;24.50;59.90;;;;;;5032179;28;20034;-78
2023/06/18 00:58:23;;;;;;;5.10;3.42;;;24.50;59.80;;;;;;5032484;28;20044;-78
2023/06/18 01:00:50;;;;;;;6.18;3.65;;;24.50;59.60;;;;;;5032084;28;20029;-78
2023/06/18 01:03:20;;;;;;;4.30;3.10;;;24.50;59.80;;;;;;5033287;28;20034;-78
2023/06/18 01:05:49;;;;;;;6.70;3.22;;;24.50;59.70;;;;;;5032210;28;20060;-78
2023/06/18 01:08:17;;;;;;;5.50;3.75;;;24.60;59.50;;;;;;5035588;28;20476;-78
2023/06/18 01:10:43;;;;;;;6.78;3.47;;;24.50;59.30;;;;;;5037233;28;20068;-78
2023/06/18 01:13:14;;;;;;;6.60;3.45;;;24.50;59.10;;;;;;5037156;28;20079;-78
2023/06/18 01:15:40;;;;;;;4.32;3.15;;;24.50;59.20;;;;;;5036721;28;20037;-78
2023/06/18 01:18:07;;;;;;;3.80;3.13;;;24.40;59.30;;;;;;5037381;28;20045;-78
2023/06/18 01:20:44;;;;;;;5.65;3.50;;;24.40;59.30;;;;;;5037118;28;20053;-78
2023/06/18 01:23:29;;;;;;;7.72;3.60;;;24.40;59.40;;;;;;5035923;28;20079;-78
2023/06/18 01:25:59;;;;;;;5.05;3.00;;;24.40;59.30;;;;;;5036813;28;20100;-78
2023/06/18 01:28:27;;;;;;;4.57;2.90;;;24.40;59.20;;;;;;5037159;28;20072;-78
2023/06/18 01:30:53;;;;;;;5.13;2.88;;;24.50;59.20;;;;;;5036587;28;20092;-78
2023/06/18 01:33:21;;;;;;;6.15;3.33;;;24.60;59.00;;;;;;5035658;28;20498;-78
2023/06/18 01:35:49;;;;;;;3.50;3.20;;;24.60;58.90;;;;;;5035541;28;20041;-78
2023/06/18 01:38:21;;;;;;;4.95;3.22;;;24.60;58.80;;;;;;5036991;28;20060;-78
2023/06/18 01:40:47;;;;;;;6.00;3.60;;;24.60;58.80;;;;;;5036869;28;20060;-78
2023/06/18 01:43:29;;;;;;;5.35;3.40;;;24.50;59.00;;;;;;5036558;28;20025;-78
2023/06/18 01:46:02;;;;;;;5.15;3.22;;;24.50;59.20;;;;;;5036172;28;20080;-78
2023/06/18 01:48:51;;;;;;;7.22;4.28;;;24.40;59.20;;;;;;5037084;28;20033;-78
2023/06/18 01:51:19;;;;;;;5.82;3.90;;;24.20;59.70;;;;;;5037116;28;20041;-78
2023/06/18 01:53:46;;;;;;;4.43;3.40;;;24.00;60.10;;;;;;5036454;28;20363;-78
2023/06/18 01:56:13;;;;;;;5.28;3.70;;;23.90;60.60;;;;;;5036427;28;20021;-78
2023/06/18 01:58:41;;;;;;;5.65;3.40;;;23.80;60.70;;;;;;5036248;28;20037;-78
2023/06/18 02:01:09;;;;;;;4.32;3.35;;;23.80;60.90;;;;;;5036308;28;20022;-78
2023/06/18 02:03:35;;;;;;;4.95;3.00;;;23.80;60.70;;;;;;5036195;28;20052;-78
2023/06/18 02:06:01;;;;;;;5.57;3.42;;;23.90;60.60;;;;;;5018556;28;20026;-78
2023/06/18 02:08:26;;;;;;;5.80;3.80;;;24.00;60.30;;;;;;5034882;28;20069;-78
2023/06/18 02:10:52;;;;;;;5.40;3.42;;;23.90;60.60;;;;;;5036041;28;20115;-78
2023/06/18 02:13:18;;;;;;;3.55;3.08;;;23.80;60.80;;;;;;5034612;28;20103;-78
2023/06/18 02:15:44;;;;;;;4.85;3.42;;;23.80;60.70;;;;;;5036306;28;20068;-78
2023/06/18 02:18:11;;;;;;;8.45;3.25;;;23.90;60.40;;;;;;5018281;28;20043;-78
2023/06/18 02:20:41;;;;;;;4.88;3.40;;;24.10;60.40;;;;;;5036382;28;20417;-78
2023/06/18 02:23:07;;;;;;;3.50;3.15;;;24.10;60.30;;;;;;5035896;28;20478;-78
2023/06/18 02:25:34;;;;;;;4.78;3.50;;;24.10;60.20;;;;;;5034683;28;20394;-78
2023/06/18 02:28:00;;;;;;;6.32;3.10;;;24.10;60.10;;;;;;5035540;28;20025;-78
2023/06/18 02:30:28;;;;;;;4.15;3.60;;;24.20;60.20;;;;;;5035473;28;20029;-78
2023/06/18 02:32:54;;;;;;;6.75;4.03;;;24.20;60.20;;;;;;5036297;28;20022;-78
2023/06/18 02:35:20;;;;;;;5.13;3.90;;;24.10;60.30;;;;;;5034344;28;20481;-78
2023/06/18 02:37:46;;;;;;;3.63;3.10;;;24.10;60.50;;;;;;5035604;28;20587;-78
2023/06/18 02:40:14;;;;;;;3.88;3.20;;;24.10;60.30;;;;;;5035513;28;20033;-78
2023/06/18 02:42:47;;;;;;;5.05;3.58;;;24.10;60.30;;;;;;5034194;28;20026;-78
2023/06/18 02:45:17;;;;;;;6.10;3.70;;;24.20;60.20;;;;;;5034446;28;20421;-78
2023/06/18 02:47:47;;;;;;;6.00;3.55;;;24.20;60.10;;;;;;5035510;28;20060;-78
2023/06/18 02:50:13;;;;;;;5.72;3.75;;;24.20;60.30;;;;;;5033618;28;20053;-78
2023/06/18 02:52:40;;;;;;;6.13;4.10;;;24.20;60.20;;;;;;5035137;28;20390;-78
2023/06/18 02:55:07;;;;;;;4.28;3.20;;;24.20;60.60;;;;;;5034790;28;20025;-78
2023/06/18 02:57:34;;;;;;;6.32;4.00;;;24.20;60.40;;;;;;5034782;28;20026;-78
2023/06/18 03:00:01;;;;;;;7.53;4.50;;;24.10;60.60;;;;;;5034885;28;20044;-78
2023/06/18 03:02:26;;;;;;;4.07;3.53;;;24.10;60.90;;;;;;5035132;28;20126;-78
2023/06/18 03:04:52;;;;;;;4.88;3.00;;;24.10;61.40;;;;;;5035149;28;20025;-78
2023/06/18 03:07:18;;;;;;;7.50;4.00;;;24.10;60.70;;;;;;5033966;28;20030;-78
2023/06/18 03:09:44;;;;;;;5.13;3.38;;;24.10;60.70;;;;;;5034526;28;20107;-78
2023/06/18 03:12:11;;;;;;;4.68;3.53;;;24.10;60.70;;;;;;5034904;28;20034;-78
2023/06/18 03:14:37;;;;;;;5.50;3.97;;;24.10;60.80;;;;;;5034918;28;20056;-78
2023/06/18 03:17:02;;;;;;;5.68;4.00;;;24.10;60.80;;;;;;5035168;28;20026;-78
2023/06/18 03:19:28;;;;;;;6.57;4.60;;;24.10;60.90;;;;;;5034885;28;20034;-78
2023/06/18 03:21:53;;;;;;;5.90;3.72;;;24.10;61.20;;;;;;5034839;28;20030;-78
2023/06/18 03:24:19;;;;;;;6.97;3.67;;;24.00;61.20;;;;;;5034740;28;20390;-78
2023/06/18 03:26:46;;;;;;;7.55;3.85;;;24.10;60.90;;;;;;5034608;28;20073;-78
2023/06/18 03:29:11;;;;;;;3.95;3.33;;;24.10;61.00;;;;;;5034695;28;20053;-78
2023/06/18 03:31:39;;;;;;;6.40;4.93;;;24.10;60.90;;;;;;5034124;28;20132;-78
2023/06/18 03:34:06;;;;;;;6.47;4.20;;;24.00;61.40;;;;;;5034496;28;20061;-78
2023/06/18 03:36:41;;;;;;;6.10;3.85;;;23.90;61.90;;;;;;5034466;28;20021;-78
2023/06/18 03:39:09;;;;;;;6.50;3.88;;;23.90;61.70;;;;;;5034236;28;20363;-78
2023/06/18 03:41:35;;;;;;;6.80;3.58;;;23.90;61.50;;;;;;5033135;28;20091;-78
2023/06/18 03:44:02;;;;;;;5.10;3.45;;;24.00;61.50;;;;;;5033237;28;20038;-78
2023/06/18 03:46:27;;;;;;;9.40;5.00;;;24.00;61.50;;;;;;5033106;28;20042;-78
2023/06/18 03:48:53;;;;;;;5.40;4.07;;;24.00;62.00;;;;;;5034121;28;20033;-78
2023/06/18 03:51:18;;;;;;;4.53;3.42;;;23.90;62.10;;;;;;5034600;28;20037;-78
2023/06/18 03:53:44;;;;;;;6.72;4.57;;;23.80;62.00;;;;;;5034185;28;20039;-78
2023/06/18 03:56:10;;;;;;;5.18;3.70;;;23.90;62.30;;;;;;5034158;28;20513;-78
2023/06/18 03:58:36;;;;;;;7.57;5.53;;;23.80;62.30;;;;;;5032993;28;20040;-78
2023/06/18 04:01:01;;;;;;;7.95;4.97;;;23.60;63.00;;;;;;5032536;28;20120;-78
2023/06/18 04:03:27;;;;;;;6.50;4.38;;;23.50;63.20;;;;;;5032742;28;20120;-78
2023/06/18 04:05:53;;;;;;;4.97;4.18;;;23.60;63.30;;;;;;5034057;28;20184;-78
2023/06/18 04:08:19;;;;;;;5.50;4.32;;;23.60;62.90;;;;;;5034373;28;20030;-78
2023/06/18 04:10:46;;;;;;;8.80;5.43;;;23.70;62.80;;;;;;5032614;28;20382;-78
2023/06/18 04:13:16;;;;;;;7.63;4.82;;;23.60;63.30;;;;;;5032683;28;20049;-78
2023/06/18 04:15:44;;;;;;;8.35;5.00;;;23.50;63.50;;;;;;5033918;28;20030;-78
2023/06/18 04:18:10;;;;;;;7.45;4.97;;;23.50;63.70;;;;;;5033545;28;20462;-78
2023/06/18 04:20:36;;;;;;;9.85;5.78;;;23.50;63.80;;;;;;5033858;28;20031;-78
2023/06/18 04:23:02;;;;;;;9.27;5.38;;;23.40;64.30;;;;;;5034053;28;20083;-78
2023/06/18 04:25:28;;;;;;;6.60;5.07;;;23.30;64.40;;;;;;5033818;28;20037;-78
2023/06/18 04:27:55;;;;;;;7.78;5.53;;;23.20;64.60;;;;;;5032180;28;20030;-78
2023/06/18 04:30:20;;;;;;;13.30;6.97;;;23.20;65.00;;;;;;5033402;28;20037;-78
2023/06/18 04:32:46;;;;;;;8.68;6.00;;;23.20;65.20;;;;;;5033793;28;20374;-78
2023/06/18 04:35:12;;;;;;;6.93;4.90;;;23.20;65.20;;;;;;5032414;28;20031;-78
2023/06/18 04:37:38;;;;;;;11.27;6.13;;;23.00;65.60;;;;;;5033630;28;20083;-78
2023/06/18 04:40:05;;;;;;;14.00;6.93;;;23.00;65.90;;;;;;5033795;28;20100;-77
2023/06/18 04:42:31;;;;;;;8.75;6.15;;;22.80;66.60;;;;;;5034132;28;20031;-78
2023/06/18 04:44:56;;;;;;;8.80;5.85;;;22.80;66.60;;;;;;5037463;28;20033;-78
2023/06/18 04:47:22;;;;;;;9.07;6.30;;;22.80;66.70;;;;;;5037671;28;20061;-78
2023/06/18 04:49:48;;;;;;;10.27;5.50;;;22.70;66.90;;;;;;5037607;28;20068;-78
2023/06/18 04:52:14;;;;;;;6.63;4.90;;;22.70;66.80;;;;;;5036752;28;20057;-78
2023/06/18 04:54:41;;;;;;;7.40;5.07;;;22.90;66.50;;;;;;5037522;28;20029;-78
2023/06/18 04:57:06;;;;;;;6.55;4.95;;;23.00;66.10;;;;;;5037486;28;20034;-78
2023/06/18 04:59:34;;;;;;;7.85;5.85;;;23.10;65.80;;;;;;5037472;28;20188;-78
2023/06/18 05:02:00;;;;;;;6.90;4.43;;;23.20;65.60;;;;;;5036194;28;20405;-78
2023/06/18 05:04:26;;;;;;;6.60;4.80;;;23.30;65.10;;;;;;5036040;28;20033;-79
2023/06/18 05:06:51;;;;;;;5.60;4.35;;;23.40;64.70;;;;;;5037255;28;20036;-78
2023/06/18 05:09:18;;;;;;;5.20;4.50;;;23.50;64.80;;;;;;5037230;28;20362;-78
2023/06/18 05:11:44;;;;;;;8.10;5.57;;;23.60;64.30;;;;;;5037439;28;20029;-78
2023/06/18 05:14:10;;;;;;;7.43;5.75;;;23.60;64.30;;;;;;5037501;28;20037;-78
2023/06/18 05:16:35;;;;;;;6.18;5.05;;;23.70;64.30;;;;;;5037005;28;20032;-78
2023/06/18 05:19:01;;;;;;;6.95;4.93;;;23.70;64.20;;;;;;5036990;28;20105;-78
2023/06/18 05:21:27;;;;;;;9.00;5.80;;;23.70;64.20;;;;;;5035746;28;20039;-78
2023/06/18 05:23:52;;;;;;;9.10;5.97;;;23.70;64.30;;;;;;5036840;28;20033;-78
2023/06/18 05:26:18;;;;;;;7.93;5.40;;;23.70;64.30;;;;;;5035489;28;20026;-78
2023/06/18 05:28:44;;;;;;;11.30;6.45;;;23.60;64.40;;;;;;5035560;28;20043;-78
2023/06/18 05:31:10;;;;;;;6.90;4.88;;;23.60;64.60;;;;;;5036785;28;20406;-78
2023/06/18 05:33:36;;;;;;;8.07;5.53;;;23.50;64.80;;;;;;5037133;28;20030;-79
2023/06/18 05:36:02;;;;;;;5.22;4.70;;;23.60;64.80;;;;;;5036689;28;20037;-79
2023/06/18 05:38:28;;;;;;;8.30;5.97;;;23.60;64.90;;;;;;5018982;28;20385;-79
2023/06/18 05:40:53;;;;;;;8.45;6.22;;;23.60;64.70;;;;;;5019512;28;20037;-78
2023/06/18 05:43:19;;;;;;;9.13;6.80;;;23.70;64.70;;;;;;5036581;28;20029;-78
2023/06/18 05:45:45;;;;;;;8.50;6.93;;;23.70;64.80;;;;;;5035389;28;20589;-79
2023/06/18 05:48:11;;;;;;;6.55;5.43;;;23.70;64.80;;;;;;5036334;28;20033;-78
2023/06/18 05:50:37;;;;;;;7.65;5.93;;;23.60;65.00;;;;;;5018520;28;20061;-78
2023/06/18 05:53:02;;;;;;;9.80;6.72;;;23.70;65.00;;;;;;5036412;28;20447;-79
2023/06/18 05:55:28;;;;;;;6.50;5.47;;;23.70;65.10;;;;;;5035904;28;20033;-78
2023/06/18 05:57:54;;;;;;;6.07;5.32;;;23.70;64.90;;;;;;5034895;28;20108;-79
2023/06/18 06:00:20;;;;;;;7.70;5.40;;;23.80;64.70;;;;;;5036223;28;20065;-78
2023/06/18 06:02:46;;;;;;;8.45;6.40;;;23.90;64.50;;;;;;5035903;28;20489;-78
2023/06/18 06:05:12;;;;;;;5.28;4.78;;;24.00;64.30;;;;;;5036293;28;20030;-78
2023/06/18 06:07:37;;;;;;;7.22;5.18;;;24.10;63.90;;;;;;5035603;28;20053;-79
2023/06/18 06:10:03;;;;;;;10.48;6.93;;;24.20;63.80;;;;;;5034499;28;20475;-78
2023/06/18 06:12:29;;;;;;;6.53;5.18;;;24.20;64.00;;;;;;5036249;28;20135;-79
2023/06/18 06:14:55;;;;;;;9.73;6.03;;;24.20;64.00;;;;;;5034608;28;20550;-78
2023/06/18 06:17:20;;;;;;;10.73;6.97;;;24.30;63.80;;;;;;5018251;28;20029;-78
2023/06/18 06:19:46;;;;;;;7.30;6.38;;;24.40;63.60;;;;;;5034657;28;20041;-79
2023/06/18 06:22:12;;;;;;;9.93;7.15;;;24.40;63.30;;;;;;5035879;28;20061;-78
2023/06/18 06:24:37;;;;;;;9.57;6.28;;;24.60;63.20;;;;;;5035503;28;20038;-79
2023/06/18 06:27:03;;;;;;;8.90;5.75;;;24.60;62.80;;;;;;5036102;28;20366;-79
2023/06/18 06:29:29;;;;;;;5.32;4.82;;;24.70;62.90;;;;;;5035641;28;20588;-79
2023/06/18 06:31:55;;;;;;;8.32;5.32;;;24.80;62.60;;;;;;5034558;28;20148;-78
2023/06/18 06:34:21;;;;;;;8.80;7.32;;;25.00;62.30;;;;;;5035581;28;20034;-78
2023/06/18 06:36:47;;;;;;;7.65;6.93;;;25.00;62.60;;;;;;5035540;28;20029;-79
2023/06/18 06:39:13;;;;;;;7.65;5.32;;;25.10;62.30;;;;;;5035122;28;20033;-78
2023/06/18 06:41:39;;;;;;;8.00;6.85;;;25.30;61.70;;;;;;5034137;28;20034;-78
2023/06/18 06:44:04;;;;;;;12.63;7.80;;;25.30;62.10;;;;;;5034207;28;20036;-78
2023/06/18 06:46:30;;;;;;;8.95;6.82;;;25.40;61.40;;;;;;5035413;28;20416;-78
2023/06/18 06:48:56;;;;;;;8.82;7.07;;;25.40;60.90;;;;;;5033663;28;20041;-78
2023/06/18 06:51:21;;;;;;;10.88;7.68;;;25.60;60.40;;;;;;5035150;28;20026;-78
2023/06/18 06:53:47;;;;;;;7.95;6.93;;;25.70;60.40;;;;;;5035214;28;20026;-77
2023/06/18 06:56:13;;;;;;;10.52;8.10;;;25.80;60.10;;;;;;5033989;28;20033;-78
2023/06/18 06:58:38;;;;;;;8.15;6.93;;;25.80;60.10;;;;;;5035651;28;20037;-78
2023/06/18 07:01:04;;;;;;;9.20;7.40;;;25.90;60.10;;;;;;5034864;28;20032;-78
2023/06/18 07:03:30;;;;;;;9.15;7.20;;;26.00;59.40;;;;;;5034802;28;20045;-78
2023/06/18 07:05:55;;;;;;;10.43;7.15;;;26.10;58.50;;;;;;5016617;28;20032;-79
2023/06/18 07:08:21;;;;;;;8.27;6.82;;;26.10;58.40;;;;;;5017438;28;20087;-78
2023/06/18 07:10:47;;;;;;;9.40;7.03;;;26.20;58.10;;;;;;5033037;28;20060;-78
2023/06/18 07:13:13;;;;;;;11.93;7.82;;;26.20;57.80;;;;;;5035021;28;20100;-78
2023/06/18 07:15:38;;;;;;;7.30;5.63;;;26.20;57.40;;;;;;5035212;28;20029;-78
2023/06/18 07:18:04;;;;;;;7.70;6.63;;;26.20;57.50;;;;;;5034423;28;20520;-78
2023/06/18 07:20:30;;;;;;;7.97;6.22;;;26.30;57.60;;;;;;5034326;28;20372;-78
2023/06/18 07:22:55;;;;;;;9.85;7.05;;;26.20;56.90;;;;;;5034748;28;20381;-78
2023/06/18 07:25:21;;;;;;;8.57;6.50;;;26.30;56.40;;;;;;5034647;28;20030;-78
2023/06/18 07:27:47;;;;;;;9.40;7.03;;;26.30;56.20;;;;;;5034722;28;20045;-78
2023/06/18 07:30:13;;;;;;;7.70;6.30;;;26.30;56.30;;;;;;5034555;28;20088;-78
2023/06/18 07:32:38;;;;;;;8.32;6.60;;;26.20;56.00;;;;;;5033438;28;20038;-77
2023/06/18 07:35:05;;;;;;;10.02;7.13;;;26.30;56.50;;;;;;5034868;28;20030;-78
2023/06/18 07:37:31;;;;;;;6.55;5.68;;;26.40;56.70;;;;;;5033398;28;20029;-78
2023/06/18 07:39:57;;;;;;;10.43;7.05;;;26.40;56.60;;;;;;5033589;28;20037;-78
2023/06/18 07:42:22;;;;;;;6.57;5.75;;;26.40;56.40;;;;;;5033236;28;20423;-78
2023/06/18 07:44:48;;;;;;;10.38;7.40;;;26.40;56.20;;;;;;5034005;28;20033;-78
2023/06/18 07:47:13;;;;;;;5.72;5.18;;;26.40;56.10;;;;;;5033079;28;20041;-78
2023/06/18 07:49:39;;;;;;;8.88;7.00;;;26.40;56.30;;;;;;5016555;28;20057;-78
2023/06/18 07:52:06;;;;;;;7.75;5.60;;;26.50;56.80;;;;;;5033092;28;20048;-78
2023/06/18 07:54:34;;;;;;;6.07;5.47;;;26.40;56.80;;;;;;5033136;28;20038;-78
2023/06/18 07:57:00;;;;;;;6.47;5.53;;;26.40;56.80;;;;;;5034428;28;20116;-78
2023/06/18 07:59:26;;;;;;;9.10;7.03;;;26.50;56.90;;;;;;5033531;28;20554;-78
2023/06/18 08:01:52;;;;;;;10.40;5.60;;;26.40;56.30;;;;;;5033981;28;20105;-78
2023/06/18 08:04:17;;;;;;;7.18;5.82;;;26.30;57.20;;;;;;5033429;28;20370;-78
2023/06/18 08:06:43;;;;;;;7.18;5.70;;;26.30;57.60;;;;;;5033381;28;20029;-78
2023/06/18 08:09:09;;;;;;;8.88;5.95;;;26.40;57.60;;;;;;5016831;28;20045;-78
2023/06/18 08:11:35;;;;;;;9.55;8.18;;;26.30;57.30;;;;;;5033873;28;20040;-78
2023/06/18 08:14:02;;;;;;;9.30;6.85;;;26.30;57.50;;;;;;5033844;28;20463;-78
2023/06/18 08:16:27;;;;;;;10.25;6.22;;;26.30;57.50;;;;;;5032363;28;20117;-78
2023/06/18 08:18:53;;;;;;;9.00;5.80;;;26.20;57.10;;;;;;5033790;28;20112;-78
2023/06/18 08:21:19;;;;;;;6.68;5.50;;;26.20;57.30;;;;;;5034078;28;20421;-78
2023/06/18 08:23:45;;;;;;;9.30;5.47;;;26.20;57.50;;;;;;5033737;28;20040;-78
2023/06/18 08:26:10;;;;;;;7.80;4.72;;;26.20;57.30;;;;;;5033824;28;20026;-78
2023/06/18 08:28:36;;;;;;;7.88;5.72;;;26.20;57.60;;;;;;5032474;28;20042;-78
2023/06/18 08:31:02;;;;;;;6.30;4.57;;;26.30;57.40;;;;;;5034209;28;20101;-78
2023/06/18 08:33:27;;;;;;;5.30;4.80;;;26.30;57.10;;;;;;5033746;28;20029;-78
2023/06/18 08:35:54;;;;;;;8.40;5.38;;;26.40;57.20;;;;;;5032927;28;20053;-78
2023/06/18 08:38:19;;;;;;;9.55;5.68;;;26.40;56.50;;;;;;5033624;28;20041;-78
2023/06/18 08:40:55;;;;;;;6.63;5.57;;;26.50;55.80;;;;;;5032435;28;20037;-78
2023/06/18 08:43:26;;;;;;;6.35;5.18;;;26.50;56.00;;;;;;5033655;28;20026;-78
2023/06/18 08:45:53;;;;;;;8.33;5.33;;;26.50;55.80;;;;;;5033749;28;20029;-78
2023/06/18 08:48:26;;;;;;;9.98;5.65;;;26.70;55.40;;;;;;5034045;28;20044;-78
2023/06/18 08:51:03;;;;;;;7.45;5.78;;;26.80;55.30;;;;;;5034295;28;20065;-78
2023/06/18 08:54:07;;;;;;;7.50;5.30;;;26.80;54.90;;;;;;5033600;28;20171;-78
2023/06/18 08:56:37;;;;;;;10.65;6.05;;;26.90;54.60;;;;;;5032621;28;20026;-78
2023/06/18 08:59:03;;;;;;;6.47;5.15;;;26.90;53.50;;;;;;5033708;28;20040;-78
2023/06/18 09:01:30;;;;;;;11.80;5.75;;;26.70;53.90;;;;;;5033735;28;20030;-78
2023/06/18 09:03:58;;;;;;;7.63;5.65;;;26.80;53.30;;;;;;5033469;28;20040;-78
2023/06/18 09:06:23;;;;;;;6.97;5.97;;;26.80;53.00;;;;;;5032229;28;20076;-78
2023/06/18 09:08:49;;;;;;;8.20;5.50;;;26.90;52.90;;;;;;5032607;28;20124;-78
2023/06/18 09:11:15;;;;;;;11.75;5.88;;;27.00;53.00;;;;;;5032675;28;20038;-78
2023/06/18 09:13:42;;;;;;;8.23;5.40;;;27.00;52.80;;;;;;5031916;28;20025;-78
2023/06/18 09:16:09;;;;;;;7.25;5.82;;;27.10;52.40;;;;;;5033260;28;20026;-78
2023/06/18 09:18:35;;;;;;;9.20;5.82;;;27.10;52.40;;;;;;5032401;28;20033;-77
2023/06/18 09:21:03;;;;;;;6.18;5.53;;;27.30;52.70;;;;;;5033286;28;20030;-78
2023/06/18 09:23:29;;;;;;;7.28;5.93;;;27.30;52.60;;;;;;5033076;28;20030;-78
2023/06/18 09:25:57;;;;;;;9.65;6.88;;;27.30;52.10;;;;;;5033530;28;20088;-78
2023/06/18 09:28:24;;;;;;;7.68;6.32;;;27.40;51.60;;;;;;5032542;28;20025;-78
2023/06/18 09:30:53;;;;;;;5.95;5.28;;;27.50;51.20;;;;;;5036979;28;20061;-78
2023/06/18 09:33:33;;;;;;;9.23;7.68;;;27.70;51.50;;;;;;5036773;28;20034;-78
2023/06/18 09:36:05;;;;;;;8.25;6.65;;;27.80;51.40;;;;;;5036760;28;20030;-78
2023/06/18 09:38:41;;;;;;;6.55;5.57;;;27.70;50.80;;;;;;5036512;28;20083;-78
2023/06/18 09:41:13;;;;;;;9.20;7.03;;;27.80;51.20;;;;;;5035303;28;20489;-78
2023/06/18 09:43:51;;;;;;;8.60;5.95;;;27.90;50.00;;;;;;5036950;28;20025;-78
2023/06/18 09:46:18;;;;;;;8.35;5.80;;;27.90;50.30;;;;;;5036305;28;20525;-77
2023/06/18 09:48:46;;;;;;;7.60;5.82;;;27.90;49.50;;;;;;5036541;28;20041;-78
2023/06/18 09:51:14;;;;;;;6.65;5.70;;;28.00;49.70;;;;;;5036006;28;20076;-78
2023/06/18 09:53:40;;;;;;;6.68;5.25;;;28.10;48.90;;;;;;5035493;28;20095;-76
2023/06/18 09:56:13;;;;;;;7.55;6.70;;;28.20;48.10;;;;;;5035143;28;20108;-78
2023/06/18 09:58:43;;;;;;;6.03;4.93;;;28.20;47.80;;;;;;5034971;28;20029;-78
2023/06/18 10:01:09;;;;;;;8.57;5.43;;;28.30;48.20;;;;;;5036248;28;20029;-78
2023/06/18 10:03:35;;;;;;;4.80;4.30;;;28.30;48.20;;;;;;5036694;28;20036;-78
2023/06/18 10:06:17;;;;;;;6.05;4.55;;;28.30;49.00;;;;;;5036729;28;20030;-78
2023/06/18 10:08:51;;;;;;;6.40;4.77;;;28.30;49.40;;;;;;5034888;28;20552;-78
2023/06/18 10:11:18;;;;;;;6.43;4.70;;;28.40;48.80;;;;;;5036355;28;20140;-78
2023/06/18 10:13:55;;;;;;;4.47;4.07;;;28.50;48.20;;;;;;5036010;28;20038;-78
2023/06/18 10:16:22;;;;;;;5.40;4.47;;;28.50;47.80;;;;;;5036257;28;20107;-78
2023/06/18 10:19:14;;;;;;;8.02;5.10;;;28.50;47.90;;;;;;5035916;28;20103;-78
2023/06/18 10:21:52;;;;;;;6.25;4.75;;;28.50;47.70;;;;;;5035433;28;20353;-78
2023/06/18 10:24:21;;;;;;;5.55;4.43;;;28.50;47.30;;;;;;5034647;28;20033;-78
2023/06/18 10:26:47;;;;;;;7.35;4.80;;;28.50;47.20;;;;;;5035260;28;20474;-78
2023/06/18 10:29:13;;;;;;;5.85;4.72;;;28.40;46.80;;;;;;5034831;28;20485;-78
2023/06/18 10:31:40;;;;;;;7.32;4.28;;;28.40;46.60;;;;;;5034820;28;20076;-78
2023/06/18 10:34:06;;;;;;;6.10;3.95;;;28.40;47.20;;;;;;5035386;28;20044;-78
2023/06/18 10:36:32;;;;;;;4.00;3.63;;;28.40;47.90;;;;;;5036018;28;20373;-78
2023/06/18 10:38:58;;;;;;;5.40;4.47;;;28.40;48.40;;;;;;5035292;28;20037;-78
2023/06/18 10:41:24;;;;;;;5.28;3.78;;;28.50;48.00;;;;;;5035848;28;20036;-78
2023/06/18 10:43:51;;;;;;;7.03;4.20;;;28.40;47.80;;;;;;5035490;28;20026;-78
2023/06/18 10:46:18;;;;;;;5.63;4.43;;;28.40;47.80;;;;;;5035535;28;20033;-78
2023/06/18 10:49:16;;;;;;;8.75;4.60;;;28.40;47.40;;;;;;5035531;28;20108;-78
2023/06/18 10:52:12;;;;;;;5.93;4.40;;;28.40;47.20;;;;;;5035098;28;20048;-78
2023/06/18 10:54:40;;;;;;;5.18;3.60;;;28.30;47.70;;;;;;5033547;28;20049;-77
2023/06/18 10:57:08;;;;;;;5.20;3.95;;;28.20;47.90;;;;;;5017679;28;20042;-78
2023/06/18 10:59:45;;;;;;;5.55;4.47;;;28.20;48.20;;;;;;5035078;28;20112;-78
2023/06/18 11:02:12;;;;;;;4.22;3.63;;;28.20;48.70;;;;;;5035335;28;20038;-78
2023/06/18 11:04:38;;;;;;;6.18;4.13;;;28.20;48.90;;;;;;5035235;28;20029;-78
2023/06/18 11:07:23;;;;;;;6.22;4.22;;;28.10;49.20;;;;;;5035366;28;20033;-78
2023/06/18 11:09:52;;;;;;;5.82;3.55;;;28.10;49.40;;;;;;5035367;28;20033;-78
2023/06/18 11:12:26;;;;;;;4.13;3.72;;;28.10;49.60;;;;;;5034848;28;20478;-78
2023/06/18 11:15:11;;;;;;;5.43;3.67;;;28.10;49.30;;;;;;5034704;28;20025;-78
2023/06/18 11:17:38;;;;;;;5.90;4.10;;;28.10;49.50;;;;;;5035182;28;20378;-78
2023/06/18 11:20:05;;;;;;;6.55;3.85;;;28.10;49.90;;;;;;5034630;28;20095;-78
2023/06/18 11:22:33;;;;;;;3.85;3.28;;;28.10;50.30;;;;;;5033960;28;20026;-78
2023/06/18 11:24:59;;;;;;;6.22;3.63;;;28.10;50.50;;;;;;5034057;28;20044;-78
2023/06/18 11:27:26;;;;;;;7.93;3.78;;;28.00;50.60;;;;;;5000384;28;20036;-77
2023/06/18 11:29:57;;;;;;;4.75;4.22;;;28.00;50.90;;;;;;5033360;28;20417;-78
2023/06/18 11:32:27;;;;;;;5.25;4.20;;;28.00;51.30;;;;;;5035170;28;20356;-78
2023/06/18 11:34:56;;;;;;;8.20;4.45;;;27.90;51.80;;;;;;5034907;28;20021;-78
2023/06/18 11:37:24;;;;;;;5.03;3.83;;;27.80;52.20;;;;;;5033091;28;20037;-78
2023/06/18 11:39:50;;;;;;;8.13;3.95;;;27.70;52.60;;;;;;5035034;28;20067;-78
2023/06/18 11:42:19;;;;;;;6.10;5.13;;;27.70;53.00;;;;;;5034334;28;20119;-78
2023/06/18 11:44:58;;;;;;;5.03;4.53;;;27.60;52.70;;;;;;5016675;28;20034;-78
2023/06/18 11:47:23;;;;;;;6.07;3.53;;;27.50;52.40;;;;;;5033803;28;20036;-78
2023/06/18 11:49:51;;;;;;;5.38;3.72;;;27.50;53.00;;;;;;5033967;28;20390;-78
2023/06/18 11:52:18;;;;;;;5.85;4.57;;;27.50;53.60;;;;;;5033794;28;20053;-78
2023/06/18 11:54:45;;;;;;;10.63;4.25;;;27.50;53.90;;;;;;5034560;28;20041;-78
2023/06/18 11:57:12;;;;;;;5.90;4.13;;;27.40;54.00;;;;;;5033882;28;20466;-78
2023/06/18 11:59:42;;;;;;;4.20;3.80;;;27.40;54.30;;;;;;5034388;28;20438;-78
2023/06/18 12:02:13;;;;;;;4.22;3.83;;;27.40;54.80;;;;;;5034004;28;20126;-78
2023/06/18 12:04:43;;;;;;;3.88;3.20;;;27.40;55.20;;;;;;5034083;28;20026;-78
2023/06/18 12:07:15;;;;;;;5.10;4.03;;;27.40;55.30;;;;;;5034601;28;20362;-78
2023/06/18 12:09:41;;;;;;;5.32;3.97;;;27.40;55.40;;;;;;5032673;28;20029;-78
2023/06/18 12:12:28;;;;;;;7.55;4.30;;;27.40;55.10;;;;;;5034188;28;20029;-78
2023/06/18 12:15:20;;;;;;;6.25;4.45;;;27.40;55.00;;;;;;5033967;28;20026;-78
2023/06/18 12:18:07;;;;;;;6.88;4.25;;;27.40;55.00;;;;;;5026590;28;20049;-78
2023/06/18 12:20:35;;;;;;;6.13;3.88;;;27.40;55.90;;;;;;5034166;28;20075;-78
2023/06/18 12:23:02;;;;;;;7.22;4.90;;;27.40;55.80;;;;;;5033611;28;20480;-77
2023/06/18 12:25:30;;;;;;;8.13;4.43;;;27.50;55.20;;;;;;5032032;28;20040;-78
2023/06/18 12:27:58;;;;;;;7.90;4.53;;;27.50;55.00;;;;;;5033980;28;20029;-78
2023/06/18 12:30:35;;;;;;;5.22;4.00;;;27.50;55.10;;;;;;5032223;28;20034;-77
2023/06/18 12:33:09;;;;;;;6.70;3.92;;;27.50;56.40;;;;;;5034023;28;20148;-78
2023/06/18 12:35:36;;;;;;;6.38;5.00;;;27.50;56.40;;;;;;5033745;28;20029;-78
2023/06/18 12:38:04;;;;;;;5.85;5.03;;;27.50;55.90;;;;;;5033605;28;20026;-78
2023/06/18 12:40:35;;;;;;;6.22;4.28;;;27.50;55.40;;;;;;5032983;28;20121;-78
2023/06/18 12:43:08;;;;;;;6.68;4.88;;;27.50;55.10;;;;;;5017311;28;20030;-77
2023/06/18 12:45:34;;;;;;;8.27;6.10;;;27.50;55.00;;;;;;5033960;28;20025;-78
2023/06/18 12:48:10;;;;;;;7.05;6.20;;;27.50;53.70;;;;;;5032085;28;20450;-78
2023/06/18 12:50:38;;;;;;;6.72;5.30;;;27.50;52.90;;;;;;5033782;28;20034;-78